Time,TemperatureF,DewpointF,PressureIn,WindDirection,WindDirectionDegrees,WindSpeedMPH,WindSpeedGustMPH,Humidity,HourlyPrecipIn,Conditions,Clouds,dailyrainin,SoftwareType,DateUTC
2013-11-26 00:01:00,15.2,12.6,30.38,ESE,116,0.0,0.0,89,0.00,,---,0.06,VWS V14.01,2013-11-26 07:01:00,
2013-11-26 00:10:00,15.5,12.8,30.36,ESE,116,0.0,0.0,89,0.00,,---,0.00,VWS V14.01,2013-11-26 07:10:00,
2013-11-26 00:11:00,15.5,12.8,30.36,ESE,116,0.0,0.0,89,0.00,,---,0.00,VWS V14.01,2013-11-26 07:11:00,
2013-11-26 00:20:00,15.5,12.8,30.36,ESE,116,0.0,0.0,89,0.00,,---,0.00,VWS V14.01,2013-11-26 07:20:00,
2013-11-26 00:21:00,15.5,12.8,30.36,ESE,116,0.0,0.0,89,0.00,,---,0.00,VWS V14.01,2013-11-26 07:21:00,
2013-11-26 00:30:00,14.4,11.5,30.36,ESE,116,0.0,0.0,88,0.00,,---,0.00,VWS V14.01,2013-11-26 07:30:00,
2013-11-26 00:31:00,14.4,11.5,30.36,ESE,116,0.0,0.0,88,0.00,,---,0.00,VWS V14.01,2013-11-26 07:31:00,
2013-11-26 00:40:00,14.8,12.1,30.36,ESE,117,0.0,0.0,89,0.00,,---,0.00,VWS V14.01,2013-11-26 07:40:00,
2013-11-26 00:41:00,14.8,12.1,30.36,ESE,117,0.0,0.0,89,0.00,,---,0.00,VWS V14.01,2013-11-26 07:41:00,
2013-11-26 00:50:00,14.6,11.7,30.37,ESE,117,0.0,0.0,88,0.00,,---,0.00,VWS V14.01,2013-11-26 07:50:00,
2013-11-26 00:51:00,14.6,11.7,30.37,ESE,117,0.0,0.0,88,0.00,,---,0.00,VWS V14.01,2013-11-26 07:51:00,
2013-11-26 01:00:00,14.3,11.7,30.39,ESE,117,0.0,0.0,89,0.00,,---,0.00,VWS V14.01,2013-11-26 08:00:00,
2013-11-26 01:01:00,14.3,11.7,30.39,ESE,117,0.0,0.0,89,0.00,,---,0.00,VWS V14.01,2013-11-26 08:01:00,
2013-11-26 01:10:00,12.7,9.6,30.37,ESE,117,0.0,0.0,87,0.00,,---,0.00,VWS V14.01,2013-11-26 08:10:00,
2013-11-26 01:11:00,12.7,9.6,30.37,ESE,117,0.0,0.0,87,0.00,,---,0.00,VWS V14.01,2013-11-26 08:11:00,
2013-11-26 01:20:00,12.5,9.6,30.37,ESE,117,0.0,0.0,88,0.00,,---,0.00,VWS V14.01,2013-11-26 08:20:00,
2013-11-26 01:21:00,12.5,9.6,30.37,ESE,117,0.0,0.0,88,0.00,,---,0.00,VWS V14.01,2013-11-26 08:21:00,
2013-11-26 01:30:00,13.2,10.6,30.38,ESE,117,0.0,0.0,89,0.00,,---,0.00,VWS V14.01,2013-11-26 08:30:00,
2013-11-26 01:31:00,13.2,10.6,30.38,ESE,117,0.0,0.0,89,0.00,,---,0.00,VWS V14.01,2013-11-26 08:31:00,
2013-11-26 01:40:00,13.9,11.3,30.35,ESE,117,0.0,0.0,89,0.00,,---,0.00,VWS V14.01,2013-11-26 08:40:00,
2013-11-26 01:41:00,13.9,11.3,30.35,ESE,117,0.0,0.0,89,0.00,,---,0.00,VWS V14.01,2013-11-26 08:41:00,
2013-11-26 01:50:00,13.7,11.1,30.35,ESE,117,0.0,0.0,89,0.00,,---,0.00,VWS V14.01,2013-11-26 08:50:00,
2013-11-26 01:51:00,13.7,11.1,30.35,ESE,117,0.0,0.0,89,0.00,,---,0.00,VWS V14.01,2013-11-26 08:51:00,
2013-11-26 02:00:00,12.5,9.6,30.38,ESE,117,0.0,0.0,88,0.00,,---,0.00,VWS V14.01,2013-11-26 09:00:00,
2013-11-26 02:01:00,12.5,9.6,30.38,ESE,117,0.0,0.0,88,0.00,,---,0.00,VWS V14.01,2013-11-26 09:01:00,
2013-11-26 02:10:00,12.1,9.5,30.41,ESE,117,0.0,0.0,89,0.00,,---,0.00,VWS V14.01,2013-11-26 09:10:00,
2013-11-26 02:11:00,12.1,9.5,30.41,ESE,117,0.0,0.0,89,0.00,,---,0.00,VWS V14.01,2013-11-26 09:11:00,
2013-11-26 02:20:00,14.3,11.9,30.39,ESE,117,0.0,0.0,90,0.00,,---,0.00,VWS V14.01,2013-11-26 09:20:00,
2013-11-26 02:21:00,14.3,11.9,30.39,ESE,117,0.0,0.0,90,0.00,,---,0.00,VWS V14.01,2013-11-26 09:21:00,
2013-11-26 02:30:00,13.7,11.1,30.39,ESE,117,0.0,0.0,89,0.00,,---,0.00,VWS V14.01,2013-11-26 09:30:00,
2013-11-26 02:31:00,13.7,11.1,30.39,ESE,117,0.0,0.0,89,0.00,,---,0.00,VWS V14.01,2013-11-26 09:31:00,
2013-11-26 02:40:00,13.1,10.5,30.39,ESE,117,0.0,0.0,89,0.00,,---,0.00,VWS V14.01,2013-11-26 09:40:00,
2013-11-26 02:41:00,13.1,10.5,30.39,ESE,117,0.0,0.0,89,0.00,,---,0.00,VWS V14.01,2013-11-26 09:41:00,
2013-11-26 02:50:00,13.3,10.9,30.39,ESE,117,0.0,0.0,90,0.00,,---,0.00,VWS V14.01,2013-11-26 09:50:00,
2013-11-26 02:51:00,13.3,10.9,30.39,ESE,117,0.0,0.0,90,0.00,,---,0.00,VWS V14.01,2013-11-26 09:51:00,
2013-11-26 03:00:00,14.0,11.6,30.38,ESE,117,0.0,0.0,90,0.00,,---,0.00,VWS V14.01,2013-11-26 10:00:00,
2013-11-26 03:01:00,14.0,11.6,30.38,ESE,117,0.0,0.0,90,0.00,,---,0.00,VWS V14.01,2013-11-26 10:01:00,
2013-11-26 03:10:00,14.8,11.9,30.41,ESE,117,0.0,0.0,88,0.00,,---,0.00,VWS V14.01,2013-11-26 10:10:00,
2013-11-26 03:11:00,14.8,11.9,30.41,ESE,117,0.0,0.0,88,0.00,,---,0.00,VWS V14.01,2013-11-26 10:11:00,
2013-11-26 03:20:00,13.3,10.2,30.41,ESE,117,0.0,0.0,87,0.00,,---,0.00,VWS V14.01,2013-11-26 10:20:00,
2013-11-26 03:21:00,13.3,10.2,30.41,ESE,117,0.0,0.0,87,0.00,,---,0.00,VWS V14.01,2013-11-26 10:21:00,
2013-11-26 03:30:00,13.9,11.0,30.41,ESE,114,0.0,0.0,88,0.00,,---,0.00,VWS V14.01,2013-11-26 10:30:00,
2013-11-26 03:31:00,13.9,11.0,30.41,ESE,114,0.0,0.0,88,0.00,,---,0.00,VWS V14.01,2013-11-26 10:31:00,
2013-11-26 03:40:00,20.8,16.2,30.35,North,360,0.0,11.0,82,0.00,,---,0.00,VWS V14.01,2013-11-26 10:40:00,
2013-11-26 03:41:00,20.8,16.2,30.35,North,360,0.0,11.0,82,0.00,,---,0.00,VWS V14.01,2013-11-26 10:41:00,
2013-11-26 03:50:00,14.1,9.1,30.42,North,5,0.0,1.0,80,0.00,,---,0.00,VWS V14.01,2013-11-26 10:50:00,
2013-11-26 03:51:00,14.1,9.1,30.42,North,5,0.0,1.0,80,0.00,,---,0.00,VWS V14.01,2013-11-26 10:51:00,
2013-11-26 04:00:00,13.6,9.7,30.42,North,360,0.0,0.0,84,0.00,,---,0.00,VWS V14.01,2013-11-26 11:00:00,
2013-11-26 04:01:00,13.6,9.7,30.42,North,360,0.0,0.0,84,0.00,,---,0.00,VWS V14.01,2013-11-26 11:01:00,
2013-11-26 04:10:00,14.4,11.0,30.46,North,5,0.0,0.0,86,0.00,,---,0.00,VWS V14.01,2013-11-26 11:10:00,
2013-11-26 04:11:00,14.4,11.0,30.46,North,5,0.0,0.0,86,0.00,,---,0.00,VWS V14.01,2013-11-26 11:11:00,
2013-11-26 04:20:00,15.3,11.6,30.44,North,360,0.0,0.0,85,0.00,,---,0.00,VWS V14.01,2013-11-26 11:20:00,
2013-11-26 04:21:00,15.3,11.6,30.44,North,360,0.0,0.0,85,0.00,,---,0.00,VWS V14.01,2013-11-26 11:21:00,
2013-11-26 04:30:00,14.5,10.8,30.44,North,360,0.0,0.0,85,0.00,,---,0.00,VWS V14.01,2013-11-26 11:30:00,
2013-11-26 04:31:00,14.5,10.8,30.44,North,360,0.0,0.0,85,0.00,,---,0.00,VWS V14.01,2013-11-26 11:31:00,
2013-11-26 04:40:00,19.7,16.2,30.40,North,360,10.0,10.0,86,0.00,,---,0.00,VWS V14.01,2013-11-26 11:40:00,
2013-11-26 04:41:00,19.7,16.2,30.40,North,360,10.0,10.0,86,0.00,,---,0.00,VWS V14.01,2013-11-26 11:41:00,
2013-11-26 04:50:00,21.8,15.7,30.39,North,355,13.0,13.0,77,0.00,,---,0.00,VWS V14.01,2013-11-26 11:50:00,
2013-11-26 04:51:00,21.8,15.7,30.39,North,355,13.0,13.0,77,0.00,,---,0.00,VWS V14.01,2013-11-26 11:51:00,
2013-11-26 05:00:00,22.5,15.2,30.37,NNW,348,9.0,17.0,73,0.00,,---,0.00,VWS V14.01,2013-11-26 12:00:00,
2013-11-26 05:01:00,22.5,15.2,30.37,NNW,348,9.0,17.0,73,0.00,,---,0.00,VWS V14.01,2013-11-26 12:01:00,
2013-11-26 05:10:00,21.9,14.6,30.42,North,355,12.0,12.0,73,0.00,,---,0.00,VWS V14.01,2013-11-26 12:10:00,
2013-11-26 05:11:00,21.9,14.6,30.42,North,355,12.0,12.0,73,0.00,,---,0.00,VWS V14.01,2013-11-26 12:11:00,
2013-11-26 05:20:00,20.9,13.3,30.41,North,360,6.0,12.0,72,0.00,,---,0.00,VWS V14.01,2013-11-26 12:20:00,
2013-11-26 05:21:00,20.9,13.3,30.41,North,360,6.0,12.0,72,0.00,,---,0.00,VWS V14.01,2013-11-26 12:21:00,
2013-11-26 05:30:00,19.1,11.9,30.44,North,355,6.0,8.0,73,0.00,,---,0.00,VWS V14.01,2013-11-26 12:30:00,
2013-11-26 05:31:00,19.1,11.9,30.44,North,355,6.0,8.0,73,0.00,,---,0.00,VWS V14.01,2013-11-26 12:31:00,
2013-11-26 05:40:00,18.5,11.9,30.44,North,355,4.0,6.0,75,0.00,,---,0.00,VWS V14.01,2013-11-26 12:40:00,
2013-11-26 05:41:00,18.5,11.9,30.44,North,355,4.0,6.0,75,0.00,,---,0.00,VWS V14.01,2013-11-26 12:41:00,
2013-11-26 05:50:00,19.9,14.2,30.44,North,355,0.0,6.0,78,0.00,,---,0.00,VWS V14.01,2013-11-26 12:50:00,
2013-11-26 05:51:00,19.9,14.2,30.44,North,355,0.0,6.0,78,0.00,,---,0.00,VWS V14.01,2013-11-26 12:51:00,
2013-11-26 06:00:00,21.3,13.7,30.42,North,355,0.0,1.0,72,0.00,,---,0.00,VWS V14.01,2013-11-26 13:00:00,
2013-11-26 06:01:00,21.3,13.7,30.42,North,355,0.0,1.0,72,0.00,,---,0.00,VWS V14.01,2013-11-26 13:01:00,
2013-11-26 06:10:00,21.3,13.7,30.46,North,355,0.0,0.0,72,0.00,,---,0.00,VWS V14.01,2013-11-26 13:10:00,
2013-11-26 06:11:00,21.3,13.7,30.46,North,355,0.0,0.0,72,0.00,,---,0.00,VWS V14.01,2013-11-26 13:11:00,
2013-11-26 06:20:00,20.1,12.5,30.46,North,355,0.0,0.0,72,0.00,,---,0.00,VWS V14.01,2013-11-26 13:20:00,
2013-11-26 06:21:00,20.1,12.5,30.46,North,355,0.0,0.0,72,0.00,,---,0.00,VWS V14.01,2013-11-26 13:21:00,
2013-11-26 06:30:00,20.1,13.2,30.46,North,355,0.0,0.0,74,0.00,,---,0.00,VWS V14.01,2013-11-26 13:30:00,
2013-11-26 06:31:00,20.1,13.2,30.46,North,355,0.0,0.0,74,0.00,,---,0.00,VWS V14.01,2013-11-26 13:31:00,
2013-11-26 06:40:00,14.7,7.6,30.53,North,360,0.0,0.0,73,0.00,,---,0.00,VWS V14.01,2013-11-26 13:40:00,
2013-11-26 06:41:00,14.7,7.6,30.53,North,360,0.0,0.0,73,0.00,,---,0.00,VWS V14.01,2013-11-26 13:41:00,
2013-11-26 06:50:00,13.2,8.2,30.55,North,360,0.0,0.0,80,0.00,,---,0.00,VWS V14.01,2013-11-26 13:50:00,
2013-11-26 06:51:00,13.2,8.2,30.55,North,360,0.0,0.0,80,0.00,,---,0.00,VWS V14.01,2013-11-26 13:51:00,
2013-11-26 07:00:00,21.6,16.1,30.46,North,360,11.0,12.0,79,0.00,,---,0.00,VWS V14.01,2013-11-26 14:00:00,
2013-11-26 07:01:00,21.6,16.1,30.46,North,360,11.0,12.0,79,0.00,,---,0.00,VWS V14.01,2013-11-26 14:01:00,
2013-11-26 07:10:00,21.3,11.4,30.49,North,360,0.0,12.0,65,0.00,,---,0.00,VWS V14.01,2013-11-26 14:10:00,
2013-11-26 07:11:00,21.3,11.4,30.49,North,360,0.0,12.0,65,0.00,,---,0.00,VWS V14.01,2013-11-26 14:11:00,
2013-11-26 07:20:00,14.3,8.4,30.58,SE,138,0.0,7.0,77,0.00,,---,0.00,VWS V14.01,2013-11-26 14:20:00,
2013-11-26 07:21:00,14.3,8.4,30.58,SE,138,0.0,7.0,77,0.00,,---,0.00,VWS V14.01,2013-11-26 14:21:00,
2013-11-26 07:30:00,14.6,9.6,30.57,SE,138,0.0,0.0,80,0.00,,---,0.00,VWS V14.01,2013-11-26 14:30:00,
2013-11-26 07:31:00,14.6,9.6,30.57,SE,138,0.0,0.0,80,0.00,,---,0.00,VWS V14.01,2013-11-26 14:31:00,
2013-11-26 07:40:00,17.1,11.7,30.56,SE,138,0.0,0.0,79,0.00,,---,0.00,VWS V14.01,2013-11-26 14:40:00,
2013-11-26 07:41:00,17.1,11.7,30.56,SE,138,0.0,0.0,79,0.00,,---,0.00,VWS V14.01,2013-11-26 14:41:00,
2013-11-26 07:50:00,17.4,11.7,30.56,SE,138,0.0,0.0,78,0.00,,---,0.00,VWS V14.01,2013-11-26 14:50:00,
2013-11-26 07:51:00,17.4,11.7,30.56,SE,138,0.0,0.0,78,0.00,,---,0.00,VWS V14.01,2013-11-26 14:51:00,
2013-11-26 08:00:00,17.1,10.9,30.56,SE,138,0.0,0.0,76,0.00,,---,0.00,VWS V14.01,2013-11-26 15:00:00,
2013-11-26 08:01:00,17.1,10.9,30.56,SE,138,0.0,0.0,76,0.00,,---,0.00,VWS V14.01,2013-11-26 15:01:00,
2013-11-26 08:10:00,23.9,16.5,30.47,North,9,0.0,11.0,73,0.00,,---,0.00,VWS V14.01,2013-11-26 15:10:00,
2013-11-26 08:11:00,23.9,16.5,30.47,North,9,0.0,11.0,73,0.00,,---,0.00,VWS V14.01,2013-11-26 15:11:00,
2013-11-26 08:20:00,25.2,16.5,30.48,North,9,0.0,9.0,69,0.00,,---,0.00,VWS V14.01,2013-11-26 15:20:00,
2013-11-26 08:21:00,25.2,16.5,30.48,North,9,0.0,9.0,69,0.00,,---,0.00,VWS V14.01,2013-11-26 15:21:00,
2013-11-26 08:30:00,23.3,14.6,30.50,North,9,0.0,0.0,69,0.00,,---,0.00,VWS V14.01,2013-11-26 15:30:00,
2013-11-26 08:31:00,23.3,14.6,30.50,North,9,0.0,0.0,69,0.00,,---,0.00,VWS V14.01,2013-11-26 15:31:00,
2013-11-26 08:40:00,22.9,14.3,30.50,North,9,0.0,0.0,69,0.00,,---,0.00,VWS V14.01,2013-11-26 15:40:00,
2013-11-26 08:41:00,22.9,14.3,30.50,North,9,0.0,0.0,69,0.00,,---,0.00,VWS V14.01,2013-11-26 15:41:00,
2013-11-26 08:50:00,23.5,15.2,30.51,North,9,0.0,0.0,70,0.00,,---,0.00,VWS V14.01,2013-11-26 15:50:00,
2013-11-26 08:51:00,23.5,15.2,30.51,North,9,0.0,0.0,70,0.00,,---,0.00,VWS V14.01,2013-11-26 15:51:00,
2013-11-26 09:00:00,25.8,16.4,30.47,NNE,18,0.0,3.0,67,0.00,,---,0.00,VWS V14.01,2013-11-26 16:00:00,
2013-11-26 09:01:00,25.8,16.4,30.47,NNE,18,0.0,3.0,67,0.00,,---,0.00,VWS V14.01,2013-11-26 16:01:00,
2013-11-26 09:10:00,25.7,17.3,30.51,NNE,18,11.0,11.0,70,0.00,,---,0.00,VWS V14.01,2013-11-26 16:10:00,
2013-11-26 09:11:00,25.7,17.3,30.51,NNE,18,11.0,11.0,70,0.00,,---,0.00,VWS V14.01,2013-11-26 16:11:00,
2013-11-26 09:20:00,28.8,18.5,30.47,NNE,13,9.0,15.0,65,0.00,,---,0.00,VWS V14.01,2013-11-26 16:20:00,
2013-11-26 09:21:00,28.8,18.5,30.47,NNE,13,9.0,15.0,65,0.00,,---,0.00,VWS V14.01,2013-11-26 16:21:00,
2013-11-26 09:30:00,29.8,18.8,30.45,North,360,15.0,16.0,63,0.00,,---,0.00,VWS V14.01,2013-11-26 16:30:00,
2013-11-26 09:31:00,29.8,18.8,30.45,North,360,15.0,16.0,63,0.00,,---,0.00,VWS V14.01,2013-11-26 16:31:00,
2013-11-26 09:40:00,30.9,18.3,30.45,North,360,20.0,25.0,59,0.01,,---,0.01,VWS V14.01,2013-11-26 16:40:00,
2013-11-26 09:41:00,30.9,18.3,30.45,North,360,20.0,25.0,59,0.01,,---,0.01,VWS V14.01,2013-11-26 16:41:00,
2013-11-26 09:50:00,31.0,18.4,30.45,North,5,16.0,23.0,59,0.01,,---,0.01,VWS V14.01,2013-11-26 16:50:00,
2013-11-26 09:51:00,31.0,18.4,30.45,North,5,16.0,23.0,59,0.01,,---,0.01,VWS V14.01,2013-11-26 16:51:00,
2013-11-26 10:00:00,31.3,18.2,30.45,North,360,16.0,19.0,58,0.01,,---,0.01,VWS V14.01,2013-11-26 17:00:00,
2013-11-26 10:01:00,31.3,18.2,30.45,North,360,16.0,19.0,58,0.01,,---,0.01,VWS V14.01,2013-11-26 17:01:00,
2013-11-26 10:10:00,32.0,18.1,30.44,North,9,13.0,17.0,56,0.01,,---,0.01,VWS V14.01,2013-11-26 17:10:00,
2013-11-26 10:20:00,32.2,19.1,30.44,North,10,11.0,17.0,58,0.01,,---,0.01,VWS V14.01,2013-11-26 17:20:00,
2013-11-26 10:21:00,32.2,19.1,30.44,North,10,11.0,17.0,58,0.01,,---,0.01,VWS V14.01,2013-11-26 17:21:00,
2013-11-26 10:30:00,32.6,19.1,30.44,North,5,12.0,16.0,57,0.01,,---,0.01,VWS V14.01,2013-11-26 17:30:00,
2013-11-26 10:31:00,32.6,19.1,30.44,North,5,12.0,16.0,57,0.01,,---,0.01,VWS V14.01,2013-11-26 17:31:00,
2013-11-26 10:40:00,33.0,18.6,30.44,NNE,13,1.0,12.0,55,0.01,,---,0.01,VWS V14.01,2013-11-26 17:40:00,
2013-11-26 10:41:00,33.0,18.6,30.44,NNE,13,1.0,12.0,55,0.01,,---,0.01,VWS V14.01,2013-11-26 17:41:00,
2013-11-26 10:50:00,29.1,18.1,30.47,NNE,14,0.0,1.0,63,0.00,,---,0.01,VWS V14.01,2013-11-26 17:50:00,
2013-11-26 10:51:00,29.1,18.1,30.47,NNE,14,0.0,1.0,63,0.00,,---,0.01,VWS V14.01,2013-11-26 17:51:00,
2013-11-26 11:00:00,29.7,19.0,30.45,SE,125,0.0,4.0,64,0.00,,---,0.01,VWS V14.01,2013-11-26 18:00:00,
2013-11-26 11:01:00,29.7,19.0,30.45,SE,125,0.0,4.0,64,0.00,,---,0.01,VWS V14.01,2013-11-26 18:01:00,
2013-11-26 11:10:00,28.3,18.1,30.48,SSE,165,2.0,4.0,65,0.00,,---,0.01,VWS V14.01,2013-11-26 18:10:00,
2013-11-26 11:11:00,28.3,18.1,30.48,SSE,165,2.0,4.0,65,0.00,,---,0.01,VWS V14.01,2013-11-26 18:11:00,
2013-11-26 11:20:00,27.3,17.5,30.47,SSE,161,4.0,7.0,66,0.00,,---,0.01,VWS V14.01,2013-11-26 18:20:00,
2013-11-26 11:21:00,27.3,17.5,30.47,SSE,161,4.0,7.0,66,0.00,,---,0.01,VWS V14.01,2013-11-26 18:21:00,
2013-11-26 11:30:00,28.3,18.8,30.47,SSE,163,0.0,4.0,67,0.00,,---,0.01,VWS V14.01,2013-11-26 18:30:00,
2013-11-26 11:31:00,28.3,18.8,30.47,SSE,163,0.0,4.0,67,0.00,,---,0.01,VWS V14.01,2013-11-26 18:31:00,
2013-11-26 11:40:00,29.6,19.3,30.45,SSE,163,0.0,0.0,65,0.00,,---,0.01,VWS V14.01,2013-11-26 18:40:00,
2013-11-26 11:41:00,29.6,19.3,30.45,SSE,163,0.0,0.0,65,0.00,,---,0.01,VWS V14.01,2013-11-26 18:41:00,
2013-11-26 11:50:00,29.9,19.6,30.45,SSE,163,0.0,0.0,65,0.00,,---,0.01,VWS V14.01,2013-11-26 18:50:00,
2013-11-26 11:51:00,29.9,19.6,30.45,SSE,163,0.0,0.0,65,0.00,,---,0.01,VWS V14.01,2013-11-26 18:51:00,
2013-11-26 12:00:00,29.8,19.5,30.44,SSE,159,2.0,4.0,65,0.00,,---,0.01,VWS V14.01,2013-11-26 19:00:00,
2013-11-26 12:01:00,29.8,19.5,30.44,SSE,159,2.0,4.0,65,0.00,,---,0.01,VWS V14.01,2013-11-26 19:01:00,
2013-11-26 12:10:00,30.0,19.3,30.44,SSE,157,4.0,5.0,64,0.00,,---,0.01,VWS V14.01,2013-11-26 19:10:00,
2013-11-26 12:11:00,30.0,19.3,30.44,SSE,157,4.0,5.0,64,0.00,,---,0.01,VWS V14.01,2013-11-26 19:11:00,
2013-11-26 12:20:00,30.1,19.8,30.44,SSE,158,0.0,5.0,65,0.00,,---,0.01,VWS V14.01,2013-11-26 19:20:00,
2013-11-26 12:21:00,30.1,19.8,30.44,SSE,158,0.0,5.0,65,0.00,,---,0.01,VWS V14.01,2013-11-26 19:21:00,
2013-11-26 12:30:00,30.6,19.9,30.43,SSE,157,3.0,5.0,64,0.00,,---,0.01,VWS V14.01,2013-11-26 19:30:00,
2013-11-26 12:31:00,30.6,19.9,30.43,SSE,157,3.0,5.0,64,0.00,,---,0.01,VWS V14.01,2013-11-26 19:31:00,
2013-11-26 12:40:00,31.4,19.9,30.42,SSE,158,6.0,6.0,62,0.00,,---,0.01,VWS V14.01,2013-11-26 19:40:00,
2013-11-26 12:41:00,31.4,19.9,30.42,SSE,158,6.0,6.0,62,0.00,,---,0.01,VWS V14.01,2013-11-26 19:41:00,
2013-11-26 12:50:00,32.0,20.1,30.40,SSE,159,5.0,7.0,61,0.00,,---,0.01,VWS V14.01,2013-11-26 19:50:00,
2013-11-26 12:51:00,32.0,20.1,30.40,SSE,159,5.0,7.0,61,0.00,,---,0.01,VWS V14.01,2013-11-26 19:51:00,
2013-11-26 13:00:00,31.7,20.2,30.40,SE,141,0.0,12.0,62,0.00,,---,0.01,VWS V14.01,2013-11-26 20:00:00,
2013-11-26 13:01:00,31.7,20.2,30.40,SE,141,0.0,12.0,62,0.00,,---,0.01,VWS V14.01,2013-11-26 20:01:00,
2013-11-26 13:10:00,31.8,20.7,30.42,SE,142,0.0,4.0,63,0.00,,---,0.01,VWS V14.01,2013-11-26 20:10:00,
2013-11-26 13:11:00,31.8,20.7,30.42,SE,142,0.0,4.0,63,0.00,,---,0.01,VWS V14.01,2013-11-26 20:11:00,
2013-11-26 13:20:00,32.0,20.1,30.41,SE,141,6.0,9.0,61,0.00,,---,0.01,VWS V14.01,2013-11-26 20:20:00,
2013-11-26 13:21:00,32.0,20.1,30.41,SE,141,6.0,9.0,61,0.00,,---,0.01,VWS V14.01,2013-11-26 20:21:00,
2013-11-26 13:30:00,32.1,21.3,30.41,SE,141,3.0,9.0,64,0.00,,---,0.01,VWS V14.01,2013-11-26 20:30:00,
2013-11-26 13:31:00,32.1,21.3,30.41,SE,141,3.0,9.0,64,0.00,,---,0.01,VWS V14.01,2013-11-26 20:31:00,
2013-11-26 13:40:00,31.9,20.8,30.41,SE,142,0.0,5.0,63,0.00,,---,0.01,VWS V14.01,2013-11-26 20:40:00,
2013-11-26 13:41:00,31.9,20.8,30.41,SE,142,0.0,5.0,63,0.00,,---,0.01,VWS V14.01,2013-11-26 20:41:00,
2013-11-26 13:50:00,32.1,20.9,30.41,SE,142,0.0,0.0,63,0.00,,---,0.01,VWS V14.01,2013-11-26 20:50:00,
2013-11-26 13:51:00,32.1,20.9,30.41,SE,142,0.0,0.0,63,0.00,,---,0.01,VWS V14.01,2013-11-26 20:51:00,
2013-11-26 14:00:00,32.2,20.3,30.41,SE,141,0.0,0.0,61,0.01,,---,0.02,VWS V14.01,2013-11-26 21:00:00,
2013-11-26 14:01:00,32.2,20.3,30.41,SE,141,0.0,0.0,61,0.01,,---,0.02,VWS V14.01,2013-11-26 21:01:00,
2013-11-26 14:10:00,32.3,20.4,30.39,SE,142,0.0,5.0,61,0.01,,---,0.02,VWS V14.01,2013-11-26 21:10:00,
2013-11-26 14:11:00,32.3,20.4,30.39,SE,142,0.0,5.0,61,0.01,,---,0.02,VWS V14.01,2013-11-26 21:11:00,
2013-11-26 14:20:00,32.4,20.1,30.39,SE,141,3.0,5.0,60,0.01,,---,0.02,VWS V14.01,2013-11-26 21:20:00,
2013-11-26 14:21:00,32.4,20.1,30.39,SE,141,3.0,5.0,60,0.01,,---,0.02,VWS V14.01,2013-11-26 21:21:00,
2013-11-26 14:30:00,32.2,19.9,30.40,SE,142,0.0,6.0,60,0.01,,---,0.02,VWS V14.01,2013-11-26 21:30:00,
2013-11-26 14:31:00,32.2,19.9,30.40,SE,142,0.0,6.0,60,0.01,,---,0.02,VWS V14.01,2013-11-26 21:31:00,
2013-11-26 14:40:00,31.9,19.6,30.40,SE,142,2.0,5.0,60,0.01,,---,0.02,VWS V14.01,2013-11-26 21:40:00,
2013-11-26 14:41:00,31.9,19.6,30.40,SE,142,2.0,5.0,60,0.01,,---,0.02,VWS V14.01,2013-11-26 21:41:00,
2013-11-26 14:50:00,31.8,19.9,30.40,SE,141,0.0,3.0,61,0.01,,---,0.02,VWS V14.01,2013-11-26 21:50:00,
2013-11-26 14:51:00,31.8,19.9,30.40,SE,141,0.0,3.0,61,0.01,,---,0.02,VWS V14.01,2013-11-26 21:51:00,
2013-11-26 15:00:00,33.5,20.3,30.40,SE,142,0.0,2.0,58,0.01,,---,0.02,VWS V14.01,2013-11-26 22:00:00,
2013-11-26 15:01:00,33.5,20.3,30.40,SE,142,0.0,2.0,58,0.01,,---,0.02,VWS V14.01,2013-11-26 22:01:00,
2013-11-26 15:10:00,33.6,20.0,30.38,SE,141,0.0,0.0,57,0.00,,---,0.02,VWS V14.01,2013-11-26 22:10:00,
2013-11-26 15:11:00,33.6,20.0,30.38,SE,141,0.0,0.0,57,0.00,,---,0.02,VWS V14.01,2013-11-26 22:11:00,
2013-11-26 15:20:00,29.8,19.1,30.42,SE,142,0.0,0.0,64,0.01,,---,0.03,VWS V14.01,2013-11-26 22:20:00,
2013-11-26 15:21:00,29.8,19.1,30.42,SE,142,0.0,0.0,64,0.01,,---,0.03,VWS V14.01,2013-11-26 22:21:00,
2013-11-26 15:30:00,29.8,19.1,30.42,SE,142,0.0,0.0,64,0.01,,---,0.03,VWS V14.01,2013-11-26 22:30:00,
2013-11-26 15:31:00,29.8,19.1,30.42,SE,142,0.0,0.0,64,0.01,,---,0.03,VWS V14.01,2013-11-26 22:31:00,
2013-11-26 15:40:00,28.8,18.2,30.44,SE,141,0.0,0.0,64,0.01,,---,0.03,VWS V14.01,2013-11-26 22:40:00,
2013-11-26 15:41:00,28.8,18.2,30.44,SE,141,0.0,0.0,64,0.01,,---,0.03,VWS V14.01,2013-11-26 22:41:00,
2013-11-26 15:50:00,28.1,17.9,30.44,SE,141,0.0,0.0,65,0.01,,---,0.03,VWS V14.01,2013-11-26 22:50:00,
2013-11-26 15:51:00,28.1,17.9,30.44,SE,141,0.0,0.0,65,0.01,,---,0.03,VWS V14.01,2013-11-26 22:51:00,
2013-11-26 16:00:00,27.3,17.8,30.46,SE,142,0.0,0.0,67,0.01,,---,0.03,VWS V14.01,2013-11-26 23:00:00,
2013-11-26 16:01:00,27.3,17.8,30.46,SE,142,0.0,0.0,67,0.01,,---,0.03,VWS V14.01,2013-11-26 23:01:00,
2013-11-26 16:10:00,24.7,15.0,30.39,SE,142,0.0,0.0,66,0.01,,---,0.03,VWS V14.01,2013-11-26 23:10:00,
2013-11-26 16:11:00,24.7,15.0,30.39,SE,142,0.0,0.0,66,0.01,,---,0.03,VWS V14.01,2013-11-26 23:11:00,
2013-11-26 16:20:00,21.3,13.4,30.42,SE,141,0.0,0.0,71,0.01,,---,0.03,VWS V14.01,2013-11-26 23:20:00,
2013-11-26 16:21:00,21.3,13.4,30.42,SE,141,0.0,0.0,71,0.01,,---,0.03,VWS V14.01,2013-11-26 23:21:00,
2013-11-26 16:30:00,20.8,12.9,30.42,SE,141,0.0,0.0,71,0.00,,---,0.03,VWS V14.01,2013-11-26 23:30:00,
2013-11-26 16:31:00,20.8,12.9,30.42,SE,141,0.0,0.0,71,0.00,,---,0.03,VWS V14.01,2013-11-26 23:31:00,
2013-11-26 16:40:00,20.9,13.6,30.42,SE,142,0.0,0.0,73,0.00,,---,0.03,VWS V14.01,2013-11-26 23:40:00,
2013-11-26 16:41:00,20.9,13.6,30.42,SE,142,0.0,0.0,73,0.00,,---,0.03,VWS V14.01,2013-11-26 23:41:00,
2013-11-26 16:50:00,21.1,14.1,30.41,SE,142,2.0,4.0,74,0.00,,---,0.03,VWS V14.01,2013-11-26 23:50:00,
2013-11-26 16:51:00,21.1,14.1,30.41,SE,142,2.0,4.0,74,0.00,,---,0.03,VWS V14.01,2013-11-26 23:51:00,
2013-11-26 17:00:00,21.1,14.1,30.42,SE,141,0.0,3.0,74,0.00,,---,0.03,VWS V14.01,2013-11-27 00:00:00,
2013-11-26 17:01:00,21.1,14.1,30.42,SE,141,0.0,3.0,74,0.00,,---,0.03,VWS V14.01,2013-11-27 00:01:00,
2013-11-26 17:10:00,20.9,13.9,30.43,SE,142,0.0,0.0,74,0.00,,---,0.03,VWS V14.01,2013-11-27 00:10:00,
2013-11-26 17:11:00,20.9,13.9,30.43,SE,142,0.0,0.0,74,0.00,,---,0.03,VWS V14.01,2013-11-27 00:11:00,
2013-11-26 17:20:00,21.5,14.2,30.44,SE,142,0.0,0.0,73,0.00,,---,0.03,VWS V14.01,2013-11-27 00:20:00,
2013-11-26 17:21:00,21.5,14.2,30.44,SE,142,0.0,0.0,73,0.00,,---,0.03,VWS V14.01,2013-11-27 00:21:00,
2013-11-26 17:30:00,21.1,13.5,30.44,SE,142,3.0,5.0,72,0.00,,---,0.03,VWS V14.01,2013-11-27 00:30:00,
2013-11-26 17:31:00,21.1,13.5,30.44,SE,142,3.0,5.0,72,0.00,,---,0.03,VWS V14.01,2013-11-27 00:31:00,
2013-11-26 17:40:00,21.3,13.1,30.44,SE,142,0.0,3.0,70,0.00,,---,0.03,VWS V14.01,2013-11-27 00:40:00,
2013-11-26 17:41:00,21.3,13.1,30.44,SE,142,0.0,3.0,70,0.00,,---,0.03,VWS V14.01,2013-11-27 00:41:00,
2013-11-26 17:50:00,20.5,13.6,30.46,SE,142,0.0,4.0,74,0.00,,---,0.03,VWS V14.01,2013-11-27 00:50:00,
2013-11-26 17:51:00,20.5,13.5,30.46,SE,142,0.0,4.0,74,0.00,,---,0.03,VWS V14.01,2013-11-27 00:51:00,
2013-11-26 18:00:00,22.7,14.4,30.43,SE,142,0.0,6.0,70,0.00,,---,0.03,VWS V14.01,2013-11-27 01:00:00,
2013-11-26 18:01:00,22.7,14.4,30.43,SE,142,0.0,6.0,70,0.00,,---,0.03,VWS V14.01,2013-11-27 01:01:00,
2013-11-26 18:10:00,21.4,13.1,30.43,SE,142,0.0,0.0,70,0.00,,---,0.03,VWS V14.01,2013-11-27 01:10:00,
2013-11-26 18:11:00,21.4,13.1,30.43,SE,142,0.0,0.0,70,0.00,,---,0.03,VWS V14.01,2013-11-27 01:11:00,
2013-11-26 18:20:00,19.7,11.8,30.45,SE,142,2.0,4.0,71,0.00,,---,0.03,VWS V14.01,2013-11-27 01:20:00,
2013-11-26 18:21:00,19.7,11.8,30.45,SE,142,2.0,4.0,71,0.00,,---,0.03,VWS V14.01,2013-11-27 01:21:00,
2013-11-26 18:30:00,22.6,14.9,30.43,SE,142,0.0,3.0,72,0.00,,---,0.03,VWS V14.01,2013-11-27 01:30:00,
2013-11-26 18:31:00,22.6,14.9,30.43,SE,142,0.0,3.0,72,0.00,,---,0.03,VWS V14.01,2013-11-27 01:31:00,
2013-11-26 18:40:00,21.6,13.3,30.43,SE,142,3.0,3.0,70,0.00,,---,0.03,VWS V14.01,2013-11-27 01:40:00,
2013-11-26 18:41:00,21.6,13.3,30.43,SE,142,3.0,3.0,70,0.00,,---,0.03,VWS V14.01,2013-11-27 01:41:00,
2013-11-26 18:50:00,22.6,14.6,30.43,SE,142,4.0,4.0,71,0.00,,---,0.03,VWS V14.01,2013-11-27 01:50:00,
2013-11-26 18:51:00,22.6,14.6,30.43,SE,142,4.0,4.0,71,0.00,,---,0.03,VWS V14.01,2013-11-27 01:51:00,
2013-11-26 19:00:00,23.4,15.1,30.44,SE,142,0.0,4.0,70,0.00,,---,0.03,VWS V14.01,2013-11-27 02:00:00,
2013-11-26 19:01:00,23.4,15.1,30.44,SE,142,0.0,4.0,70,0.00,,---,0.03,VWS V14.01,2013-11-27 02:01:00,
2013-11-26 19:10:00,22.9,12.9,30.47,SE,146,4.0,5.0,65,0.00,,---,0.03,VWS V14.01,2013-11-27 02:10:00,
2013-11-26 19:11:00,22.9,12.9,30.47,SE,146,4.0,5.0,65,0.00,,---,0.03,VWS V14.01,2013-11-27 02:11:00,
2013-11-26 19:20:00,23.8,14.1,30.47,SSW,209,6.0,6.0,66,0.00,,---,0.03,VWS V14.01,2013-11-27 02:20:00,
2013-11-26 19:21:00,23.8,14.1,30.47,SSW,209,6.0,6.0,66,0.00,,---,0.03,VWS V14.01,2013-11-27 02:21:00,
2013-11-26 19:30:00,21.8,12.5,30.50,WSW,258,0.0,9.0,67,0.00,,---,0.03,VWS V14.01,2013-11-27 02:30:00,
2013-11-26 19:31:00,21.8,12.5,30.50,WSW,258,0.0,9.0,67,0.00,,---,0.03,VWS V14.01,2013-11-27 02:31:00,
2013-11-26 19:40:00,21.2,13.3,30.50,WSW,258,0.0,0.0,71,0.00,,---,0.03,VWS V14.01,2013-11-27 02:40:00,
2013-11-26 19:41:00,21.2,13.3,30.50,WSW,258,0.0,0.0,71,0.00,,---,0.03,VWS V14.01,2013-11-27 02:41:00,
2013-11-26 19:50:00,20.3,11.4,30.52,WSW,258,0.0,0.0,68,0.00,,---,0.03,VWS V14.01,2013-11-27 02:50:00,
2013-11-26 19:51:00,20.3,11.4,30.52,WSW,258,0.0,0.0,68,0.00,,---,0.03,VWS V14.01,2013-11-27 02:51:00,
2013-11-26 20:00:00,20.3,11.8,30.52,WSW,258,0.0,0.0,69,0.00,,---,0.03,VWS V14.01,2013-11-27 03:00:00,
2013-11-26 20:01:00,20.3,11.8,30.52,WSW,258,0.0,0.0,69,0.00,,---,0.03,VWS V14.01,2013-11-27 03:01:00,
2013-11-26 20:10:00,20.3,12.7,30.43,WSW,258,0.0,0.0,72,0.00,,---,0.03,VWS V14.01,2013-11-27 03:10:00,
2013-11-26 20:11:00,20.3,12.7,30.43,WSW,258,0.0,0.0,72,0.00,,---,0.03,VWS V14.01,2013-11-27 03:11:00,
2013-11-26 20:20:00,19.6,11.4,30.43,WSW,258,0.0,5.0,70,0.00,,---,0.03,VWS V14.01,2013-11-27 03:20:00,
2013-11-26 20:21:00,19.6,11.4,30.43,WSW,258,0.0,5.0,70,0.00,,---,0.03,VWS V14.01,2013-11-27 03:21:00,
2013-11-26 20:30:00,19.1,12.2,30.45,WSW,258,0.0,0.0,74,0.00,,---,0.03,VWS V14.01,2013-11-27 03:30:00,
2013-11-26 20:31:00,19.1,12.2,30.45,WSW,258,0.0,0.0,74,0.00,,---,0.03,VWS V14.01,2013-11-27 03:31:00,
2013-11-26 20:40:00,19.7,13.1,30.45,WSW,258,0.0,0.0,75,0.00,,---,0.03,VWS V14.01,2013-11-27 03:40:00,
2013-11-26 20:41:00,19.7,13.1,30.45,WSW,258,0.0,0.0,75,0.00,,---,0.03,VWS V14.01,2013-11-27 03:41:00,
2013-11-26 20:50:00,19.7,13.4,30.43,WSW,257,0.0,3.0,76,0.00,,---,0.03,VWS V14.01,2013-11-27 03:50:00,
2013-11-26 20:51:00,19.7,13.4,30.43,WSW,257,0.0,3.0,76,0.00,,---,0.03,VWS V14.01,2013-11-27 03:51:00,
2013-11-26 21:00:00,20.7,14.6,30.42,WSW,257,0.0,4.0,77,0.00,,---,0.03,VWS V14.01,2013-11-27 04:00:00,
2013-11-26 21:01:00,20.7,14.6,30.42,WSW,257,0.0,4.0,77,0.00,,---,0.03,VWS V14.01,2013-11-27 04:01:00,
2013-11-26 21:10:00,20.3,12.1,30.37,WSW,258,0.0,5.0,70,0.00,,---,0.03,VWS V14.01,2013-11-27 04:10:00,
2013-11-26 21:11:00,20.3,12.1,30.37,WSW,258,0.0,5.0,70,0.00,,---,0.03,VWS V14.01,2013-11-27 04:11:00,
2013-11-26 21:20:00,19.1,11.6,30.39,WSW,257,0.0,2.0,72,0.00,,---,0.03,VWS V14.01,2013-11-27 04:20:00,
2013-11-26 21:21:00,19.1,11.6,30.39,WSW,257,0.0,2.0,72,0.00,,---,0.03,VWS V14.01,2013-11-27 04:21:00,
2013-11-26 21:30:00,19.0,12.7,30.39,WSW,258,0.0,0.0,76,0.00,,---,0.03,VWS V14.01,2013-11-27 04:30:00,
2013-11-26 21:31:00,19.0,12.7,30.39,WSW,258,0.0,0.0,76,0.00,,---,0.03,VWS V14.01,2013-11-27 04:31:00,
2013-11-26 21:40:00,18.4,12.1,30.41,WSW,257,3.0,5.0,76,0.00,,---,0.03,VWS V14.01,2013-11-27 04:40:00,
2013-11-26 21:41:00,18.4,12.1,30.41,WSW,257,3.0,5.0,76,0.00,,---,0.03,VWS V14.01,2013-11-27 04:41:00,
2013-11-26 21:50:00,18.9,13.2,30.40,WSW,258,5.0,6.0,78,0.00,,---,0.03,VWS V14.01,2013-11-27 04:50:00,
2013-11-26 21:51:00,18.9,13.2,30.40,WSW,258,5.0,6.0,78,0.00,,---,0.03,VWS V14.01,2013-11-27 04:51:00,
2013-11-26 22:00:00,18.7,11.8,30.40,WSW,257,0.0,6.0,74,0.00,,---,0.03,VWS V14.01,2013-11-27 05:00:00,
2013-11-26 22:01:00,18.7,11.8,30.40,WSW,257,0.0,6.0,74,0.00,,---,0.03,VWS V14.01,2013-11-27 05:01:00,
2013-11-26 22:10:00,15.9,8.8,30.44,WSW,258,0.0,0.0,73,0.00,,---,0.03,VWS V14.01,2013-11-27 05:10:00,
2013-11-26 22:11:00,15.9,8.8,30.44,WSW,258,0.0,0.0,73,0.00,,---,0.03,VWS V14.01,2013-11-27 05:11:00,
2013-11-26 22:20:00,17.3,10.4,30.42,WSW,258,0.0,0.0,74,0.00,,---,0.03,VWS V14.01,2013-11-27 05:20:00,
2013-11-26 22:21:00,17.3,10.4,30.42,WSW,258,0.0,0.0,74,0.00,,---,0.03,VWS V14.01,2013-11-27 05:21:00,
2013-11-26 22:30:00,16.8,10.6,30.44,WSW,257,0.0,0.0,76,0.00,,---,0.03,VWS V14.01,2013-11-27 05:30:00,
2013-11-26 22:31:00,16.8,10.6,30.44,WSW,257,0.0,0.0,76,0.00,,---,0.03,VWS V14.01,2013-11-27 05:31:00,
2013-11-26 22:40:00,18.5,12.8,30.42,WSW,258,0.0,0.0,78,0.00,,---,0.03,VWS V14.01,2013-11-27 05:40:00,
2013-11-26 22:41:00,18.5,12.8,30.42,WSW,258,0.0,0.0,78,0.00,,---,0.03,VWS V14.01,2013-11-27 05:41:00,
2013-11-26 22:50:00,18.0,11.7,30.42,West,259,0.0,9.0,76,0.00,,---,0.03,VWS V14.01,2013-11-27 05:50:00,
2013-11-26 22:51:00,18.0,11.7,30.42,West,259,0.0,9.0,76,0.00,,---,0.03,VWS V14.01,2013-11-27 05:51:00,
2013-11-26 23:00:00,18.8,11.6,30.42,West,259,4.0,6.0,73,0.00,,---,0.03,VWS V14.01,2013-11-27 06:00:00,
2013-11-26 23:01:00,18.8,11.6,30.42,West,259,4.0,6.0,73,0.00,,---,0.03,VWS V14.01,2013-11-27 06:01:00,
2013-11-26 23:10:00,18.8,12.8,30.42,West,259,0.0,5.0,77,0.00,,---,0.03,VWS V14.01,2013-11-27 06:10:00,
2013-11-26 23:11:00,18.8,12.8,30.42,West,259,0.0,5.0,77,0.00,,---,0.03,VWS V14.01,2013-11-27 06:11:00,
2013-11-26 23:20:00,18.6,10.8,30.42,West,259,0.0,0.0,71,0.00,,---,0.03,VWS V14.01,2013-11-27 06:20:00,
2013-11-26 23:21:00,18.6,10.8,30.42,West,259,0.0,0.0,71,0.00,,---,0.03,VWS V14.01,2013-11-27 06:21:00,
2013-11-26 23:30:00,17.7,10.5,30.41,West,259,0.0,0.0,73,0.00,,---,0.03,VWS V14.01,2013-11-27 06:30:00,
2013-11-26 23:32:00,17.7,10.5,30.41,West,259,0.0,0.0,73,0.00,,---,0.03,VWS V14.01,2013-11-27 06:32:00,
2013-11-26 23:40:00,19.1,12.8,30.41,West,259,0.0,7.0,76,0.00,,---,0.03,VWS V14.01,2013-11-27 06:40:00,
2013-11-26 23:41:00,19.1,12.8,30.41,West,259,0.0,7.0,76,0.00,,---,0.03,VWS V14.01,2013-11-27 06:41:00,
2013-11-26 23:50:00,18.1,11.2,30.41,West,259,0.0,4.0,74,0.00,,---,0.03,VWS V14.01,2013-11-27 06:50:00,
2013-11-26 23:51:00,18.1,11.2,30.41,West,259,0.0,4.0,74,0.00,,---,0.03,VWS V14.01,2013-11-27 06:51:00,